createdAt,value
2022-12-17T00:15:54.121Z,32.50
2022-12-17T00:18:42.567Z,33.50
2022-12-17T00:21:28.773Z,31.23
2022-12-17T00:28:00.111Z,33.30
2022-12-17T00:30:45.434Z,33.83
2022-12-17T00:33:31.495Z,33.80
2022-12-17T00:36:16.803Z,32.10
2022-12-17T00:39:03.710Z,32.13
2022-12-17T00:41:49.376Z,33.20
2022-12-17T00:44:34.238Z,33.33
2022-12-17T00:47:19.277Z,32.65
2022-12-17T00:50:04.173Z,34.78
2022-12-17T00:52:49.667Z,33.25
2022-12-17T00:55:35.050Z,32.95
2022-12-17T00:58:20.481Z,32.00
2022-12-17T01:01:05.761Z,32.55
2022-12-17T01:03:51.030Z,32.00
2022-12-17T01:10:47.909Z,30.50
2022-12-17T01:13:34.766Z,31.05
2022-12-17T01:16:29.693Z,33.85
2022-12-17T01:19:16.043Z,32.60
2022-12-17T01:22:01.508Z,31.48
2022-12-17T01:24:46.956Z,31.35
2022-12-17T01:27:53.846Z,30.17
2022-12-17T01:30:41.576Z,31.35
2022-12-17T01:33:28.487Z,31.12
2022-12-17T01:43:00.875Z,32.47
2022-12-17T01:45:50.231Z,34.53
2022-12-17T01:48:36.380Z,34.42
2022-12-17T01:51:22.395Z,36.38
2022-12-17T01:54:10.289Z,35.75
2022-12-17T01:56:59.718Z,36.80
2022-12-17T01:59:57.586Z,35.47
2022-12-17T02:02:43.106Z,37.45
2022-12-17T02:05:28.444Z,38.15
2022-12-17T02:08:25.638Z,37.38
2022-12-17T02:11:22.186Z,36.42
2022-12-17T02:14:48.940Z,35.53
2022-12-17T02:17:39.969Z,33.80
2022-12-17T02:20:47.997Z,34.78
2022-12-17T02:23:57.945Z,33.97
2022-12-17T02:26:49.169Z,33.17
2022-12-17T02:29:35.537Z,32.47
2022-12-17T02:32:22.394Z,30.35
2022-12-17T02:35:07.776Z,32.00
2022-12-17T02:37:52.616Z,32.00
2022-12-17T02:43:13.517Z,29.35
2022-12-17T02:45:59.009Z,31.52
2022-12-17T02:48:56.358Z,32.03
2022-12-17T02:51:43.339Z,31.60
2022-12-17T02:54:28.749Z,30.30
2022-12-17T02:58:09.335Z,31.17
2022-12-17T03:01:16.304Z,32.53
2022-12-17T03:04:01.679Z,30.62
2022-12-17T03:06:48.123Z,31.70
2022-12-17T03:09:33.194Z,31.87
2022-12-17T03:12:18.148Z,30.98
2022-12-17T03:17:38.835Z,30.35
2022-12-17T03:20:24.826Z,30.80
2022-12-17T03:23:09.961Z,30.60
2022-12-17T03:25:55.154Z,31.08
2022-12-17T03:28:40.526Z,33.40
2022-12-17T03:35:16.223Z,30.65
2022-12-17T03:38:02.480Z,31.40
2022-12-17T03:40:47.451Z,31.15
2022-12-17T03:43:33.136Z,32.60
2022-12-17T03:46:18.645Z,30.62
2022-12-17T03:49:03.855Z,32.38
2022-12-17T03:52:08.776Z,29.95
2022-12-17T03:54:54.133Z,31.90
2022-12-17T03:57:39.750Z,33.03
2022-12-17T04:04:33.761Z,32.33
2022-12-17T04:07:19.387Z,32.72
2022-12-17T04:10:04.688Z,32.00
2022-12-17T04:12:49.783Z,31.45
2022-12-17T04:15:35.277Z,31.33
2022-12-17T04:18:20.279Z,31.85
2022-12-17T04:21:05.827Z,32.75
2022-12-17T04:23:50.791Z,32.38
2022-12-17T04:26:36.199Z,31.62
2022-12-17T04:29:20.967Z,31.67
2022-12-17T04:32:06.406Z,30.98
2022-12-17T04:34:51.349Z,31.17
2022-12-17T04:37:36.843Z,31.80
2022-12-17T04:40:22.325Z,30.40
2022-12-17T04:43:07.213Z,30.15
2022-12-17T04:45:52.244Z,29.33
2022-12-17T04:48:37.713Z,29.55
2022-12-17T04:51:23.185Z,28.48
2022-12-17T04:54:08.631Z,28.23
2022-12-17T04:56:53.517Z,27.75
2022-12-17T05:06:42.377Z,26.85
2022-12-17T05:09:27.552Z,26.85
2022-12-17T05:12:12.902Z,27.42
2022-12-17T05:14:57.976Z,26.40
2022-12-17T05:17:42.913Z,26.92
2022-12-17T05:20:28.455Z,26.33
2022-12-17T05:23:13.816Z,27.62
2022-12-17T05:25:58.741Z,26.67
2022-12-17T05:28:44.128Z,24.42
2022-12-17T05:31:29.269Z,25.75
2022-12-17T05:34:23.892Z,25.60
2022-12-17T05:41:05.317Z,23.38
2022-12-17T05:43:50.246Z,23.75
2022-12-17T05:46:35.413Z,25.02
2022-12-17T05:49:20.487Z,24.23
2022-12-17T05:52:05.845Z,24.60
2022-12-17T05:54:51.594Z,24.40
2022-12-17T05:57:36.858Z,25.05
2022-12-17T06:00:22.384Z,25.05
2022-12-17T06:03:07.136Z,27.00
2022-12-17T06:05:52.390Z,25.02
2022-12-17T06:11:36.731Z,24.65
2022-12-17T06:14:22.452Z,25.67
2022-12-17T06:17:07.648Z,24.90
2022-12-17T06:23:33.420Z,24.10
2022-12-17T06:26:19.823Z,24.45
2022-12-17T06:29:05.121Z,24.37
2022-12-17T06:31:50.182Z,24.37
2022-12-17T06:34:35.608Z,24.37
2022-12-17T06:37:20.773Z,26.00
2022-12-17T06:40:05.592Z,25.20
2022-12-17T06:42:50.556Z,24.80
2022-12-17T06:45:35.513Z,25.52
2022-12-17T06:48:22.425Z,24.65
2022-12-17T06:51:08.010Z,25.52
2022-12-17T06:53:53.384Z,23.95
2022-12-17T06:56:38.447Z,25.45
2022-12-17T06:59:23.293Z,24.60
2022-12-17T07:02:08.838Z,25.00
2022-12-17T07:10:08.051Z,25.67
2022-12-17T07:12:57.495Z,27.23
2022-12-17T07:15:42.671Z,26.77
2022-12-17T07:18:27.933Z,25.20
2022-12-17T07:21:13.429Z,26.70
2022-12-17T07:24:25.167Z,26.73
2022-12-17T07:30:09.789Z,25.45
2022-12-17T07:32:54.745Z,24.92
2022-12-17T07:35:40.219Z,27.10
2022-12-17T07:38:25.622Z,26.37
2022-12-17T07:41:11.102Z,26.50
2022-12-17T07:43:56.018Z,27.90
2022-12-17T07:46:41.349Z,26.23
2022-12-17T07:49:26.850Z,27.75
2022-12-17T07:52:12.198Z,27.37
2022-12-17T07:54:57.733Z,25.88
2022-12-17T07:57:43.168Z,27.67
2022-12-17T08:00:29.025Z,28.00
2022-12-17T08:03:26.144Z,27.02
2022-12-17T08:06:11.417Z,25.33
2022-12-17T08:08:58.397Z,28.67
2022-12-17T08:11:43.258Z,27.65
2022-12-17T08:14:28.322Z,28.80
2022-12-17T08:17:13.250Z,26.30
2022-12-17T08:19:58.267Z,28.52
2022-12-17T08:22:43.229Z,27.02
2022-12-17T08:25:28.323Z,28.67
2022-12-17T08:28:49.076Z,28.85
2022-12-17T08:31:23.835Z,27.40
2022-12-17T08:34:08.712Z,30.05
2022-12-17T08:36:53.900Z,28.85
2022-12-17T08:39:38.642Z,30.23
2022-12-17T08:42:23.750Z,28.15
2022-12-17T08:45:09.450Z,28.15
2022-12-17T08:47:57.925Z,30.10
2022-12-17T08:50:45.689Z,28.83
2022-12-17T08:53:34.709Z,30.88
2022-12-17T08:56:20.114Z,28.33
2022-12-17T08:59:05.180Z,29.58
2022-12-17T09:01:50.355Z,30.17
2022-12-17T09:04:40.015Z,29.58
2022-12-17T09:07:25.330Z,30.40
2022-12-17T09:10:20.106Z,28.90
2022-12-17T09:13:08.077Z,29.17
2022-12-17T09:15:53.147Z,29.08
2022-12-17T09:18:40.177Z,29.08
2022-12-17T09:21:26.585Z,29.05
2022-12-17T09:24:12.153Z,28.20
2022-12-17T09:26:57.089Z,29.25
2022-12-17T09:29:42.543Z,27.85
2022-12-17T09:32:27.912Z,30.12
2022-12-17T09:35:13.008Z,29.25
2022-12-17T09:37:58.366Z,29.33
2022-12-17T09:40:43.824Z,27.73
2022-12-17T09:44:06.530Z,27.70
2022-12-17T09:47:03.634Z,28.00
2022-12-17T09:49:48.538Z,27.35
2022-12-17T09:52:40.576Z,26.98
2022-12-17T09:55:52.428Z,28.15
2022-12-17T09:58:41.276Z,27.52
2022-12-17T10:01:35.540Z,29.15
2022-12-17T10:04:23.891Z,29.40
2022-12-17T10:07:09.459Z,27.33
2022-12-17T10:09:55.487Z,28.77
2022-12-17T10:12:42.438Z,27.85
2022-12-17T10:15:33.743Z,29.33
2022-12-17T10:18:27.938Z,28.20
2022-12-17T10:21:30.388Z,28.33
2022-12-17T10:24:27.078Z,28.85
2022-12-17T10:27:12.613Z,26.77
2022-12-17T10:30:00.532Z,27.80
2022-12-17T10:32:46.417Z,29.58
2022-12-17T10:35:44.104Z,28.30
2022-12-17T10:38:41.720Z,28.60
2022-12-17T10:41:44.885Z,28.10
2022-12-17T10:44:46.751Z,26.15
2022-12-17T10:47:36.847Z,27.37
2022-12-17T10:50:35.490Z,27.33
2022-12-17T10:53:21.991Z,28.02
2022-12-17T10:56:15.651Z,28.17
2022-12-17T11:02:17.096Z,25.33
2022-12-17T11:05:10.943Z,26.65
2022-12-17T11:08:01.604Z,26.85
2022-12-17T11:10:50.732Z,27.58
2022-12-17T11:13:49.493Z,26.55
2022-12-17T11:17:01.569Z,25.80
2022-12-17T11:20:13.628Z,28.00
2022-12-17T11:23:10.076Z,28.38
2022-12-17T11:25:58.220Z,27.15
2022-12-17T11:28:46.555Z,26.12
2022-12-17T11:31:31.785Z,27.80
2022-12-17T11:34:29.059Z,26.58
2022-12-17T11:37:44.128Z,25.35
2022-12-17T11:40:46.181Z,25.55
2022-12-17T11:43:41.148Z,26.90
2022-12-17T11:46:52.493Z,27.08
2022-12-17T11:50:05.099Z,28.00
2022-12-17T11:53:02.391Z,28.77
2022-12-17T11:56:15.659Z,26.95
2022-12-17T11:59:09.136Z,27.35
2022-12-17T12:05:41.740Z,26.17
2022-12-17T12:08:47.167Z,28.27
2022-12-17T12:12:03.554Z,26.65
2022-12-17T12:15:12.116Z,26.58
2022-12-17T12:18:00.427Z,26.35
2022-12-17T12:20:54.511Z,27.92
2022-12-17T12:24:10.103Z,26.45
2022-12-17T12:27:08.617Z,28.98
2022-12-17T12:30:03.869Z,27.40
2022-12-17T12:33:05.505Z,27.77
2022-12-17T12:35:55.343Z,27.65
2022-12-17T12:38:50.138Z,27.15
2022-12-17T12:41:58.580Z,27.17
2022-12-17T12:44:53.580Z,28.65
2022-12-17T12:47:55.497Z,27.62
2022-12-17T12:50:48.106Z,27.50
2022-12-17T12:53:33.770Z,27.92
2022-12-17T12:56:18.992Z,27.60
2022-12-17T13:01:57.044Z,29.08
2022-12-17T13:04:47.599Z,28.77
2022-12-17T13:07:56.592Z,29.15
2022-12-17T14:34:18.373Z,22.65
2022-12-17T14:36:46.419Z,25.05
2022-12-17T14:39:33.283Z,26.52
2022-12-17T14:42:29.753Z,23.50
2022-12-17T14:45:03.626Z,26.05
2022-12-17T14:55:54.874Z,24.50
2022-12-17T14:58:56.170Z,23.80
2022-12-17T15:04:25.080Z,23.70
2022-12-17T15:13:11.376Z,22.17
2022-12-17T15:15:37.944Z,23.10
2022-12-17T15:18:35.853Z,22.05
2022-12-17T15:21:03.390Z,21.55
2022-12-17T15:23:33.483Z,22.08
2022-12-17T15:26:00.114Z,22.25
2022-12-17T15:29:18.149Z,23.12
2022-12-17T15:32:05.075Z,19.15
2022-12-17T15:34:32.278Z,20.52
2022-12-17T15:37:01.877Z,21.00
2022-12-17T15:39:36.558Z,19.87
2022-12-17T15:42:45.523Z,19.80
2022-12-17T15:45:17.932Z,18.65
2022-12-17T15:53:19.028Z,19.25
2022-12-17T16:23:15.952Z,17.00
2022-12-17T16:50:52.763Z,17.48
2022-12-17T16:53:21.187Z,16.40
2022-12-17T16:55:50.058Z,16.52
2022-12-17T16:58:17.916Z,18.37
2022-12-17T17:09:26.312Z,18.87
2022-12-17T17:33:10.635Z,18.00
2022-12-17T17:35:37.600Z,18.77
2022-12-17T17:38:04.489Z,18.23
2022-12-17T17:56:21.737Z,17.90
2022-12-17T17:58:51.458Z,19.35
2022-12-17T18:01:22.437Z,18.90
2022-12-17T18:03:49.331Z,18.37
2022-12-17T18:06:16.372Z,18.60
2022-12-17T18:08:43.460Z,19.42
2022-12-17T18:11:20.180Z,18.83
2022-12-17T18:13:56.847Z,20.48
2022-12-17T18:16:37.559Z,20.10
2022-12-17T18:19:07.321Z,20.25
2022-12-17T18:21:34.421Z,20.42
2022-12-17T18:24:05.084Z,19.98
2022-12-17T18:26:45.262Z,20.92
2022-12-17T18:29:15.188Z,19.90
2022-12-17T18:31:44.797Z,21.05
2022-12-17T18:34:16.296Z,19.45
2022-12-17T18:36:45.913Z,19.48
2022-12-17T18:39:24.075Z,18.45
2022-12-17T18:42:10.919Z,19.87
2022-12-17T18:52:36.502Z,19.02
2022-12-17T18:57:44.519Z,18.75
2022-12-17T19:00:35.268Z,18.87
2022-12-17T19:03:04.413Z,18.83
2022-12-17T19:05:34.840Z,18.50
2022-12-17T19:08:01.421Z,18.55
2022-12-17T19:10:27.992Z,17.25
2022-12-17T19:12:55.204Z,17.25
2022-12-17T19:15:22.569Z,17.80
2022-12-17T19:17:50.933Z,17.40
2022-12-17T19:20:39.397Z,17.70
2022-12-17T19:23:05.984Z,17.02
2022-12-17T19:25:32.626Z,18.17
2022-12-17T19:27:59.215Z,17.92
2022-12-17T19:30:25.796Z,15.65
2022-12-17T19:32:52.404Z,17.45
2022-12-17T19:35:21.866Z,15.55
2022-12-17T19:37:50.104Z,16.98
2022-12-17T19:40:16.698Z,16.75
2022-12-17T19:42:43.347Z,16.87
2022-12-17T19:45:10.338Z,15.10
2022-12-17T19:47:36.889Z,16.50
2022-12-17T19:50:03.777Z,17.52
2022-12-17T19:52:30.394Z,17.02
2022-12-17T19:54:56.956Z,16.30
2022-12-17T19:57:26.419Z,15.32
2022-12-17T19:59:52.956Z,17.67
2022-12-17T20:02:20.454Z,17.83
2022-12-17T20:04:51.921Z,17.48
2022-12-17T20:07:18.525Z,17.98
2022-12-17T20:09:45.190Z,18.10
2022-12-17T20:12:11.955Z,17.62
2022-12-17T20:14:38.593Z,17.40
2022-12-17T20:17:05.445Z,18.40
2022-12-17T20:22:07.603Z,16.70
2022-12-17T20:24:37.444Z,17.42
2022-12-17T20:27:04.396Z,17.73
2022-12-17T20:29:30.980Z,16.98
2022-12-17T20:31:57.685Z,18.02
2022-12-17T20:34:25.228Z,18.30
2022-12-17T20:36:53.210Z,16.87
2022-12-17T20:39:25.869Z,20.80
2022-12-17T20:41:53.510Z,19.60
2022-12-17T20:44:20.091Z,19.73
2022-12-17T20:46:46.608Z,17.90
2022-12-17T20:49:14.686Z,17.73
2022-12-17T20:51:41.581Z,18.35
2022-12-17T20:54:08.987Z,18.35
2022-12-17T20:56:36.212Z,18.90
2022-12-17T20:59:06.460Z,17.80
2022-12-17T21:01:35.751Z,20.10
2022-12-17T21:04:04.103Z,18.85
2022-12-17T21:06:36.533Z,18.65
2022-12-17T21:09:04.639Z,18.75
2022-12-17T21:11:33.107Z,19.37
2022-12-17T21:14:05.542Z,18.90
2022-12-17T21:16:32.660Z,17.33
2022-12-17T21:19:00.535Z,18.27
2022-12-17T21:21:30.410Z,18.65
2022-12-17T21:23:58.163Z,17.85
2022-12-17T21:26:26.453Z,18.23
2022-12-17T21:28:59.175Z,18.50
2022-12-17T21:31:32.224Z,17.40
2022-12-17T21:34:01.895Z,17.55
2022-12-17T21:36:30.957Z,17.67
2022-12-17T21:38:58.848Z,18.85
2022-12-17T21:41:31.330Z,18.77
2022-12-17T21:44:03.903Z,17.33
2022-12-17T21:46:31.891Z,19.10
2022-12-17T21:49:00.186Z,18.02
2022-12-17T21:51:37.253Z,18.37
2022-12-17T21:54:08.345Z,18.25
2022-12-17T21:56:38.660Z,17.73
2022-12-17T21:59:05.221Z,18.27
2022-12-17T22:02:03.144Z,18.55
2022-12-17T22:05:01.032Z,17.00
2022-12-17T22:07:52.212Z,17.37
2022-12-17T22:10:42.413Z,18.83
2022-12-17T22:13:31.350Z,18.70
2022-12-17T22:15:57.976Z,18.20
2022-12-17T22:18:24.722Z,18.55
2022-12-17T22:20:58.897Z,18.27
2022-12-17T22:23:25.836Z,18.70
2022-12-17T22:25:52.951Z,18.77
2022-12-17T22:28:21.073Z,19.80
2022-12-17T22:31:06.776Z,18.92
2022-12-17T22:33:44.762Z,19.80
2022-12-17T22:38:03.841Z,20.12
2022-12-17T22:43:58.555Z,18.20
2022-12-17T22:44:29.476Z,19.62
2022-12-17T22:45:10.966Z,19.48
2022-12-17T22:47:38.680Z,20.05
2022-12-17T22:50:05.885Z,19.55
2022-12-17T22:55:08.656Z,19.58
2022-12-17T22:57:38.200Z,19.23
2022-12-17T23:00:15.240Z,19.25
2022-12-17T23:02:41.868Z,20.08
2022-12-17T23:05:09.052Z,21.27
2022-12-17T23:08:06.752Z,19.45
2022-12-17T23:10:53.762Z,19.73
2022-12-17T23:13:20.329Z,19.60
2022-12-17T23:15:46.929Z,19.95
2022-12-17T23:18:13.533Z,19.98
2022-12-17T23:21:28.388Z,18.25
2022-12-17T23:23:56.490Z,21.42
2022-12-17T23:26:28.450Z,19.98
2022-12-17T23:29:01.807Z,20.58
2022-12-17T23:31:32.263Z,20.00
2022-12-17T23:33:58.863Z,19.70
2022-12-17T23:39:00.806Z,20.10
2022-12-17T23:41:32.802Z,19.05
2022-12-17T23:44:09.314Z,20.80
2022-12-17T23:46:35.926Z,18.60
2022-12-17T23:49:11.658Z,19.33
